sensor_id;sensor_type;location;lat;lon;timestamp;pressure;altitude;pressure_sealevel;temperature;humidity
20156;BME280;10238;49.556;10.956;2023-03-14T00:01:21;96582.44;;;9.03;100.00
20156;BME280;10238;49.556;10.956;2023-03-14T00:04:09;96586.94;;;9.02;100.00
20156;BME280;10238;49.556;10.956;2023-03-14T00:06:59;96589.56;;;9.02;100.00
20156;BME280;10238;49.556;10.956;2023-03-14T00:09:46;96585.97;;;9.10;100.00
20156;BME280;10238;49.556;10.956;2023-03-14T00:12:34;96602.03;;;9.08;100.00
20156;BME280;10238;49.556;10.956;2023-03-14T00:15:23;96599.59;;;9.07;100.00
20156;BME280;10238;49.556;10.956;2023-03-14T00:18:11;96593.09;;;9.09;100.00
20156;BME280;10238;49.556;10.956;2023-03-14T00:20:59;96593.09;;;9.09;100.00
20156;BME280;10238;49.556;10.956;2023-03-14T00:23:48;96605.72;;;9.07;100.00
20156;BME280;10238;49.556;10.956;2023-03-14T00:26:36;96610.00;;;9.08;100.00
20156;BME280;10238;49.556;10.956;2023-03-14T00:29:24;96620.59;;;9.08;100.00
20156;BME280;10238;49.556;10.956;2023-03-14T00:32:12;96627.56;;;9.09;100.00
20156;BME280;10238;49.556;10.956;2023-03-14T00:35:00;96627.94;;;9.06;100.00
20156;BME280;10238;49.556;10.956;2023-03-14T00:37:49;96631.38;;;9.07;100.00
20156;BME280;10238;49.556;10.956;2023-03-14T00:40:40;96637.69;;;9.06;100.00
20156;BME280;10238;49.556;10.956;2023-03-14T00:43:28;96639.16;;;9.08;100.00
20156;BME280;10238;49.556;10.956;2023-03-14T00:46:17;96647.75;;;9.10;100.00
20156;BME280;10238;49.556;10.956;2023-03-14T00:49:05;96640.81;;;9.09;100.00
20156;BME280;10238;49.556;10.956;2023-03-14T00:51:53;96634.69;;;9.09;100.00
20156;BME280;10238;49.556;10.956;2023-03-14T00:54:41;96629.84;;;9.12;100.00
20156;BME280;10238;49.556;10.956;2023-03-14T00:57:30;96620.03;;;9.13;100.00
20156;BME280;10238;49.556;10.956;2023-03-14T01:00:18;96637.59;;;9.14;100.00
20156;BME280;10238;49.556;10.956;2023-03-14T01:03:07;96635.38;;;9.17;100.00
20156;BME280;10238;49.556;10.956;2023-03-14T01:06:10;96628.69;;;9.21;100.00
20156;BME280;10238;49.556;10.956;2023-03-14T01:08:58;96615.66;;;9.20;100.00
20156;BME280;10238;49.556;10.956;2023-03-14T01:11:47;96616.81;;;9.17;100.00
20156;BME280;10238;49.556;10.956;2023-03-14T01:14:36;96625.16;;;9.14;100.00
20156;BME280;10238;49.556;10.956;2023-03-14T01:17:28;96622.69;;;9.13;100.00
20156;BME280;10238;49.556;10.956;2023-03-14T01:20:17;96620.69;;;9.15;100.00
20156;BME280;10238;49.556;10.956;2023-03-14T01:23:05;96603.94;;;9.14;100.00
20156;BME280;10238;49.556;10.956;2023-03-14T01:25:53;96603.38;;;9.19;100.00
20156;BME280;10238;49.556;10.956;2023-03-14T01:28:41;96591.34;;;9.16;100.00
20156;BME280;10238;49.556;10.956;2023-03-14T01:31:30;96577.63;;;9.13;100.00
20156;BME280;10238;49.556;10.956;2023-03-14T01:34:18;96580.09;;;9.14;100.00
20156;BME280;10238;49.556;10.956;2023-03-14T01:37:06;96576.66;;;9.14;100.00
20156;BME280;10238;49.556;10.956;2023-03-14T01:39:54;96580.47;;;9.11;100.00
20156;BME280;10238;49.556;10.956;2023-03-14T01:42:46;96574.38;;;9.11;100.00
20156;BME280;10238;49.556;10.956;2023-03-14T01:46:06;96588.19;;;9.06;100.00
20156;BME280;10238;49.556;10.956;2023-03-14T01:49:06;96575.91;;;9.05;100.00
20156;BME280;10238;49.556;10.956;2023-03-14T01:51:58;96583.50;;;9.08;100.00
20156;BME280;10238;49.556;10.956;2023-03-14T01:54:49;96595.50;;;9.04;100.00
20156;BME280;10238;49.556;10.956;2023-03-14T01:57:41;96598.97;;;9.05;100.00
20156;BME280;10238;49.556;10.956;2023-03-14T02:00:31;96593.03;;;9.03;100.00
20156;BME280;10238;49.556;10.956;2023-03-14T02:03:21;96582.63;;;9.01;100.00
20156;BME280;10238;49.556;10.956;2023-03-14T02:06:12;96595.94;;;9.08;100.00
20156;BME280;10238;49.556;10.956;2023-03-14T02:09:03;96594.66;;;9.04;100.00
20156;BME280;10238;49.556;10.956;2023-03-14T02:11:51;96591.03;;;9.05;100.00
20156;BME280;10238;49.556;10.956;2023-03-14T02:14:39;96581.63;;;9.02;100.00
20156;BME280;10238;49.556;10.956;2023-03-14T02:17:29;96577.97;;;9.03;100.00
20156;BME280;10238;49.556;10.956;2023-03-14T02:20:28;96579.97;;;9.01;100.00
20156;BME280;10238;49.556;10.956;2023-03-14T02:23:27;96567.09;;;8.98;100.00
20156;BME280;10238;49.556;10.956;2023-03-14T02:26:22;96557.50;;;8.97;100.00
20156;BME280;10238;49.556;10.956;2023-03-14T02:29:13;96551.56;;;8.95;100.00
20156;BME280;10238;49.556;10.956;2023-03-14T02:32:02;96551.56;;;8.95;100.00
20156;BME280;10238;49.556;10.956;2023-03-14T02:34:54;96547.28;;;8.94;100.00
20156;BME280;10238;49.556;10.956;2023-03-14T02:37:46;96537.06;;;8.91;100.00
20156;BME280;10238;49.556;10.956;2023-03-14T02:40:35;96546.03;;;8.90;100.00
20156;BME280;10238;49.556;10.956;2023-03-14T02:43:23;96534.16;;;8.86;100.00
20156;BME280;10238;49.556;10.956;2023-03-14T02:46:14;96532.88;;;8.82;100.00
20156;BME280;10238;49.556;10.956;2023-03-14T02:49:07;96531.63;;;8.78;100.00
20156;BME280;10238;49.556;10.956;2023-03-14T02:51:55;96525.44;;;8.71;100.00
20156;BME280;10238;49.556;10.956;2023-03-14T02:54:43;96522.16;;;8.69;100.00
20156;BME280;10238;49.556;10.956;2023-03-14T02:57:31;96519.88;;;8.66;100.00
20156;BME280;10238;49.556;10.956;2023-03-14T03:00:19;96511.56;;;8.69;100.00
20156;BME280;10238;49.556;10.956;2023-03-14T03:03:09;96518.25;;;8.65;100.00
20156;BME280;10238;49.556;10.956;2023-03-14T03:05:57;96524.94;;;8.61;100.00
20156;BME280;10238;49.556;10.956;2023-03-14T03:08:45;96528.31;;;8.55;100.00
20156;BME280;10238;49.556;10.956;2023-03-14T03:11:33;96521.94;;;8.49;100.00
20156;BME280;10238;49.556;10.956;2023-03-14T03:14:21;96530.47;;;8.45;100.00
20156;BME280;10238;49.556;10.956;2023-03-14T03:17:09;96529.72;;;8.36;100.00
20156;BME280;10238;49.556;10.956;2023-03-14T03:19:59;96522.59;;;8.37;100.00
20156;BME280;10238;49.556;10.956;2023-03-14T03:22:49;96523.25;;;8.39;100.00
20156;BME280;10238;49.556;10.956;2023-03-14T03:25:37;96519.31;;;8.35;100.00
20156;BME280;10238;49.556;10.956;2023-03-14T03:28:25;96504.63;;;8.32;100.00
20156;BME280;10238;49.556;10.956;2023-03-14T03:31:13;96502.16;;;8.31;100.00
20156;BME280;10238;49.556;10.956;2023-03-14T03:34:01;96492.59;;;8.30;100.00
20156;BME280;10238;49.556;10.956;2023-03-14T03:36:50;96501.56;;;8.29;100.00
20156;BME280;10238;49.556;10.956;2023-03-14T03:39:38;96496.00;;;8.24;100.00
20156;BME280;10238;49.556;10.956;2023-03-14T03:42:27;96517.50;;;8.21;100.00
20156;BME280;10238;49.556;10.956;2023-03-14T03:45:15;96514.19;;;8.19;100.00
20156;BME280;10238;49.556;10.956;2023-03-14T03:48:04;96498.69;;;8.16;100.00
20156;BME280;10238;49.556;10.956;2023-03-14T03:50:52;96508.47;;;8.15;100.00
20156;BME280;10238;49.556;10.956;2023-03-14T03:53:41;96497.72;;;8.17;100.00
20156;BME280;10238;49.556;10.956;2023-03-14T03:56:29;96495.50;;;8.20;100.00
20156;BME280;10238;49.556;10.956;2023-03-14T03:59:18;96488.88;;;8.24;100.00
20156;BME280;10238;49.556;10.956;2023-03-14T04:02:07;96497.25;;;8.28;100.00
20156;BME280;10238;49.556;10.956;2023-03-14T04:04:55;96478.09;;;8.26;100.00
20156;BME280;10238;49.556;10.956;2023-03-14T04:07:43;96477.47;;;8.24;100.00
20156;BME280;10238;49.556;10.956;2023-03-14T04:10:34;96476.25;;;8.26;100.00
20156;BME280;10238;49.556;10.956;2023-03-14T04:13:22;96470.53;;;8.23;100.00
20156;BME280;10238;49.556;10.956;2023-03-14T04:16:15;96452.81;;;8.23;100.00
20156;BME280;10238;49.556;10.956;2023-03-14T04:19:04;96438.78;;;8.23;100.00
20156;BME280;10238;49.556;10.956;2023-03-14T04:21:52;96460.94;;;8.22;100.00
20156;BME280;10238;49.556;10.956;2023-03-14T04:24:40;96469.22;;;8.19;100.00
20156;BME280;10238;49.556;10.956;2023-03-14T04:27:29;96459.66;;;8.18;100.00
20156;BME280;10238;49.556;10.956;2023-03-14T04:30:17;96452.72;;;8.17;100.00
20156;BME280;10238;49.556;10.956;2023-03-14T04:33:05;96437.59;;;8.11;100.00
20156;BME280;10238;49.556;10.956;2023-03-14T04:35:54;96442.41;;;8.07;100.00
20156;BME280;10238;49.556;10.956;2023-03-14T04:38:42;96454.00;;;8.06;100.00
20156;BME280;10238;49.556;10.956;2023-03-14T04:41:30;96446.25;;;8.05;100.00
20156;BME280;10238;49.556;10.956;2023-03-14T04:44:19;96454.56;;;8.02;100.00
20156;BME280;10238;49.556;10.956;2023-03-14T04:47:07;96463.88;;;7.98;100.00
20156;BME280;10238;49.556;10.956;2023-03-14T04:49:55;96449.22;;;7.95;100.00
20156;BME280;10238;49.556;10.956;2023-03-14T04:52:44;96452.84;;;7.94;100.00
20156;BME280;10238;49.556;10.956;2023-03-14T04:55:32;96456.03;;;7.90;100.00
20156;BME280;10238;49.556;10.956;2023-03-14T04:58:24;96443.47;;;7.92;100.00
20156;BME280;10238;49.556;10.956;2023-03-14T05:01:14;96451.59;;;7.90;100.00
20156;BME280;10238;49.556;10.956;2023-03-14T05:04:01;96456.41;;;7.87;100.00
20156;BME280;10238;49.556;10.956;2023-03-14T05:06:49;96454.78;;;7.86;100.00
20156;BME280;10238;49.556;10.956;2023-03-14T05:09:37;96456.34;;;7.80;100.00
20156;BME280;10238;49.556;10.956;2023-03-14T05:12:25;96451.41;;;7.77;100.00
20156;BME280;10238;49.556;10.956;2023-03-14T05:15:13;96454.25;;;7.76;100.00
20156;BME280;10238;49.556;10.956;2023-03-14T05:18:03;96450.50;;;7.70;100.00
20156;BME280;10238;49.556;10.956;2023-03-14T05:20:51;96451.25;;;7.64;100.00
20156;BME280;10238;49.556;10.956;2023-03-14T05:23:39;96444.09;;;7.65;100.00
20156;BME280;10238;49.556;10.956;2023-03-14T05:26:27;96438.22;;;7.63;100.00
20156;BME280;10238;49.556;10.956;2023-03-14T05:29:15;96433.09;;;7.61;100.00
20156;BME280;10238;49.556;10.956;2023-03-14T05:32:03;96428.81;;;7.60;100.00
20156;BME280;10238;49.556;10.956;2023-03-14T05:34:52;96426.25;;;7.52;100.00
20156;BME280;10238;49.556;10.956;2023-03-14T05:37:44;96430.53;;;7.53;100.00
20156;BME280;10238;49.556;10.956;2023-03-14T05:40:32;96419.72;;;7.48;100.00
20156;BME280;10238;49.556;10.956;2023-03-14T05:43:21;96412.75;;;7.47;100.00
20156;BME280;10238;49.556;10.956;2023-03-14T05:46:09;96412.56;;;7.49;100.00
20156;BME280;10238;49.556;10.956;2023-03-14T05:48:57;96410.28;;;7.46;100.00
20156;BME280;10238;49.556;10.956;2023-03-14T05:51:47;96411.84;;;7.40;100.00
20156;BME280;10238;49.556;10.956;2023-03-14T05:54:35;96405.31;;;7.36;100.00
20156;BME280;10238;49.556;10.956;2023-03-14T05:57:23;96397.19;;;7.38;100.00
20156;BME280;10238;49.556;10.956;2023-03-14T06:00:11;96403.66;;;7.35;100.00
20156;BME280;10238;49.556;10.956;2023-03-14T06:02:59;96404.66;;;7.34;100.00
20156;BME280;10238;49.556;10.956;2023-03-14T06:05:50;96400.47;;;7.40;100.00
20156;BME280;10238;49.556;10.956;2023-03-14T06:08:40;96396.09;;;7.47;100.00
20156;BME280;10238;49.556;10.956;2023-03-14T06:11:27;96412.75;;;7.47;100.00
20156;BME280;10238;49.556;10.956;2023-03-14T06:14:15;96414.50;;;7.55;100.00
20156;BME280;10238;49.556;10.956;2023-03-14T06:17:03;96421.81;;;7.53;100.00
20156;BME280;10238;49.556;10.956;2023-03-14T06:19:51;96418.50;;;7.51;100.00
20156;BME280;10238;49.556;10.956;2023-03-14T06:22:39;96408.59;;;7.53;100.00
20156;BME280;10238;49.556;10.956;2023-03-14T06:25:30;96411.66;;;7.56;100.00
20156;BME280;10238;49.556;10.956;2023-03-14T06:28:18;96415.41;;;7.62;100.00
20156;BME280;10238;49.556;10.956;2023-03-14T06:31:06;96410.84;;;7.70;100.00
20156;BME280;10238;49.556;10.956;2023-03-14T06:33:54;96415.13;;;7.71;100.00
20156;BME280;10238;49.556;10.956;2023-03-14T06:36:42;96410.91;;;7.77;100.00
20156;BME280;10238;49.556;10.956;2023-03-14T06:39:31;96415.59;;;7.75;100.00
20156;BME280;10238;49.556;10.956;2023-03-14T06:42:20;96403.38;;;7.59;100.00
20156;BME280;10238;49.556;10.956;2023-03-14T06:45:08;96405.38;;;7.72;100.00
20156;BME280;10238;49.556;10.956;2023-03-14T06:47:56;96404.00;;;7.76;100.00
20156;BME280;10238;49.556;10.956;2023-03-14T06:50:44;96410.66;;;7.72;100.00
20156;BME280;10238;49.556;10.956;2023-03-14T06:53:32;96416.56;;;7.88;100.00
20156;BME280;10238;49.556;10.956;2023-03-14T06:56:21;96421.09;;;7.94;100.00
20156;BME280;10238;49.556;10.956;2023-03-14T06:59:10;96418.72;;;7.99;100.00
20156;BME280;10238;49.556;10.956;2023-03-14T07:01:58;96414.50;;;8.05;100.00
20156;BME280;10238;49.556;10.956;2023-03-14T07:04:46;96422.72;;;8.10;100.00
20156;BME280;10238;49.556;10.956;2023-03-14T07:07:34;96419.72;;;8.13;100.00
20156;BME280;10238;49.556;10.956;2023-03-14T07:10:22;96423.72;;;8.09;100.00
20156;BME280;10238;49.556;10.956;2023-03-14T07:13:10;96418.41;;;8.09;100.00
20156;BME280;10238;49.556;10.956;2023-03-14T07:15:59;96414.28;;;8.21;100.00
20156;BME280;10238;49.556;10.956;2023-03-14T07:18:47;96404.06;;;8.32;100.00
20156;BME280;10238;49.556;10.956;2023-03-14T07:21:36;96398.09;;;8.45;100.00
20156;BME280;10238;49.556;10.956;2023-03-14T07:24:24;96400.97;;;8.50;100.00
20156;BME280;10238;49.556;10.956;2023-03-14T07:27:12;96400.22;;;8.56;100.00
20156;BME280;10238;49.556;10.956;2023-03-14T07:30:00;96401.34;;;8.68;100.00
20156;BME280;10238;49.556;10.956;2023-03-14T07:32:49;96404.03;;;8.74;100.00
20156;BME280;10238;49.556;10.956;2023-03-14T07:35:38;96405.31;;;8.78;100.00
20156;BME280;10238;49.556;10.956;2023-03-14T07:38:26;96398.06;;;8.87;100.00
20156;BME280;10238;49.556;10.956;2023-03-14T07:41:15;96400.72;;;8.94;100.00
20156;BME280;10238;49.556;10.956;2023-03-14T07:44:03;96398.53;;;8.97;100.00
20156;BME280;10238;49.556;10.956;2023-03-14T07:46:51;96401.44;;;9.02;100.00
20156;BME280;10238;49.556;10.956;2023-03-14T07:49:40;96403.72;;;9.12;100.00
20156;BME280;10238;49.556;10.956;2023-03-14T07:52:28;96411.09;;;9.16;100.00
20156;BME280;10238;49.556;10.956;2023-03-14T07:55:16;96397.09;;;9.29;100.00
20156;BME280;10238;49.556;10.956;2023-03-14T07:58:04;96390.19;;;9.28;100.00
20156;BME280;10238;49.556;10.956;2023-03-14T08:00:53;96402.28;;;9.37;100.00
20156;BME280;10238;49.556;10.956;2023-03-14T08:03:41;96406.59;;;9.44;100.00
20156;BME280;10238;49.556;10.956;2023-03-14T08:06:30;96410.41;;;9.69;100.00
20156;BME280;10238;49.556;10.956;2023-03-14T08:09:18;96403.13;;;9.84;100.00
20156;BME280;10238;49.556;10.956;2023-03-14T08:12:06;96410.09;;;9.85;100.00
20156;BME280;10238;49.556;10.956;2023-03-14T08:14:54;96406.41;;;9.86;100.00
20156;BME280;10238;49.556;10.956;2023-03-14T08:17:42;96401.94;;;9.87;100.00
20156;BME280;10238;49.556;10.956;2023-03-14T08:20:30;96404.19;;;9.90;100.00
20156;BME280;10238;49.556;10.956;2023-03-14T08:23:20;96399.28;;;9.93;100.00
20156;BME280;10238;49.556;10.956;2023-03-14T08:26:08;96382.19;;;10.02;100.00
20156;BME280;10238;49.556;10.956;2023-03-14T08:28:56;96369.78;;;10.09;100.00
20156;BME280;10238;49.556;10.956;2023-03-14T08:31:43;96380.22;;;10.17;100.00
20156;BME280;10238;49.556;10.956;2023-03-14T08:34:33;96383.28;;;10.21;100.00
20156;BME280;10238;49.556;10.956;2023-03-14T08:37:21;96382.06;;;10.30;100.00
20156;BME280;10238;49.556;10.956;2023-03-14T08:40:14;96380.06;;;10.45;100.00
20156;BME280;10238;49.556;10.956;2023-03-14T08:43:03;96372.31;;;10.56;100.00
20156;BME280;10238;49.556;10.956;2023-03-14T08:45:51;96378.47;;;10.63;100.00
20156;BME280;10238;49.556;10.956;2023-03-14T08:48:39;96365.59;;;10.67;100.00
20156;BME280;10238;49.556;10.956;2023-03-14T08:51:28;96370.09;;;10.79;100.00
20156;BME280;10238;49.556;10.956;2023-03-14T08:54:16;96363.72;;;10.80;100.00
20156;BME280;10238;49.556;10.956;2023-03-14T08:57:05;96360.25;;;10.86;100.00
20156;BME280;10238;49.556;10.956;2023-03-14T08:59:53;96356.38;;;10.95;100.00
20156;BME280;10238;49.556;10.956;2023-03-14T09:02:42;96354.31;;;11.17;100.00
20156;BME280;10238;49.556;10.956;2023-03-14T09:05:33;96347.34;;;11.36;100.00
20156;BME280;10238;49.556;10.956;2023-03-14T09:08:22;96338.69;;;11.47;100.00
20156;BME280;10238;49.556;10.956;2023-03-14T09:11:09;96336.22;;;11.52;100.00
20156;BME280;10238;49.556;10.956;2023-03-14T09:13:59;96324.75;;;11.58;100.00
20156;BME280;10238;49.556;10.956;2023-03-14T09:16:47;96327.78;;;11.61;100.00
20156;BME280;10238;49.556;10.956;2023-03-14T09:19:35;96333.56;;;11.65;100.00
20156;BME280;10238;49.556;10.956;2023-03-14T09:22:22;96346.81;;;11.71;100.00
20156;BME280;10238;49.556;10.956;2023-03-14T09:25:11;96336.56;;;11.81;100.00
20156;BME280;10238;49.556;10.956;2023-03-14T09:27:59;96322.19;;;11.89;100.00
20156;BME280;10238;49.556;10.956;2023-03-14T09:30:48;96330.78;;;11.91;100.00
20156;BME280;10238;49.556;10.956;2023-03-14T09:33:38;96326.66;;;11.95;100.00
20156;BME280;10238;49.556;10.956;2023-03-14T09:36:26;96321.88;;;12.10;100.00
20156;BME280;10238;49.556;10.956;2023-03-14T09:39:13;96319.22;;;12.10;100.00
20156;BME280;10238;49.556;10.956;2023-03-14T09:42:04;96328.66;;;12.06;100.00
20156;BME280;10238;49.556;10.956;2023-03-14T09:44:56;96320.53;;;11.94;100.00
20156;BME280;10238;49.556;10.956;2023-03-14T09:47:46;96338.03;;;12.15;100.00
20156;BME280;10238;49.556;10.956;2023-03-14T09:50:48;96338.19;;;12.20;100.00
20156;BME280;10238;49.556;10.956;2023-03-14T09:53:39;96322.56;;;11.99;100.00
20156;BME280;10238;49.556;10.956;2023-03-14T09:56:29;96321.78;;;12.23;100.00
20156;BME280;10238;49.556;10.956;2023-03-14T09:59:19;96326.81;;;12.37;100.00
20156;BME280;10238;49.556;10.956;2023-03-14T10:02:17;96327.47;;;12.33;100.00
20156;BME280;10238;49.556;10.956;2023-03-14T10:05:13;96322.78;;;12.28;100.00
20156;BME280;10238;49.556;10.956;2023-03-14T10:08:02;96325.56;;;12.40;100.00
20156;BME280;10238;49.556;10.956;2023-03-14T10:10:51;96325.56;;;12.40;100.00
20156;BME280;10238;49.556;10.956;2023-03-14T10:13:49;96321.88;;;12.41;100.00
20156;BME280;10238;49.556;10.956;2023-03-14T10:16:40;96320.09;;;12.35;100.00
20156;BME280;10238;49.556;10.956;2023-03-14T10:19:29;96324.03;;;12.26;100.00
20156;BME280;10238;49.556;10.956;2023-03-14T10:22:18;96314.91;;;12.40;100.00
20156;BME280;10238;49.556;10.956;2023-03-14T10:25:10;96315.31;;;12.43;100.00
20156;BME280;10238;49.556;10.956;2023-03-14T10:28:24;96318.47;;;12.34;100.00
20156;BME280;10238;49.556;10.956;2023-03-14T10:31:13;96321.19;;;12.52;100.00
20156;BME280;10238;49.556;10.956;2023-03-14T10:34:03;96307.72;;;12.47;100.00
20156;BME280;10238;49.556;10.956;2023-03-14T10:36:54;96318.19;;;12.42;100.00
20156;BME280;10238;49.556;10.956;2023-03-14T10:39:47;96322.44;;;12.49;100.00
20156;BME280;10238;49.556;10.956;2023-03-14T10:42:41;96321.78;;;12.54;100.00
20156;BME280;10238;49.556;10.956;2023-03-14T10:45:35;96319.13;;;12.54;100.00
20156;BME280;10238;49.556;10.956;2023-03-14T10:48:29;96323.41;;;12.55;100.00
20156;BME280;10238;49.556;10.956;2023-03-14T10:51:26;96333.09;;;12.74;100.00
20156;BME280;10238;49.556;10.956;2023-03-14T10:54:19;96331.56;;;12.91;100.00
20156;BME280;10238;49.556;10.956;2023-03-14T10:57:10;96326.28;;;13.09;100.00
20156;BME280;10238;49.556;10.956;2023-03-14T10:59:58;96323.25;;;13.24;100.00
20156;BME280;10238;49.556;10.956;2023-03-14T11:03:03;96328.31;;;13.50;100.00
20156;BME280;10238;49.556;10.956;2023-03-14T11:05:56;96337.59;;;13.65;100.00
20156;BME280;10238;49.556;10.956;2023-03-14T11:08:49;96325.13;;;13.77;100.00
20156;BME280;10238;49.556;10.956;2023-03-14T11:11:43;96326.78;;;14.08;100.00
20156;BME280;10238;49.556;10.956;2023-03-14T11:14:38;96322.25;;;14.26;100.00
20156;BME280;10238;49.556;10.956;2023-03-14T11:17:34;96321.28;;;14.50;100.00
20156;BME280;10238;49.556;10.956;2023-03-14T11:20:33;96322.03;;;14.69;100.00
20156;BME280;10238;49.556;10.956;2023-03-14T11:23:26;96310.19;;;14.76;100.00
20156;BME280;10238;49.556;10.956;2023-03-14T11:26:27;96320.41;;;14.79;100.00
20156;BME280;10238;49.556;10.956;2023-03-14T11:29:21;96309.66;;;14.56;100.00
20156;BME280;10238;49.556;10.956;2023-03-14T11:32:17;96297.50;;;14.83;100.00
20156;BME280;10238;49.556;10.956;2023-03-14T11:35:16;96296.59;;;14.89;100.00
20156;BME280;10238;49.556;10.956;2023-03-14T11:38:14;96284.41;;;15.40;100.00
20156;BME280;10238;49.556;10.956;2023-03-14T11:41:02;96281.88;;;15.73;100.00
20156;BME280;10238;49.556;10.956;2023-03-14T11:43:55;96274.53;;;15.68;100.00
20156;BME280;10238;49.556;10.956;2023-03-14T11:46:46;96268.91;;;16.37;100.00
20156;BME280;10238;49.556;10.956;2023-03-14T11:49:40;96268.97;;;15.98;100.00
20156;BME280;10238;49.556;10.956;2023-03-14T11:52:34;96255.63;;;16.92;100.00
20156;BME280;10238;49.556;10.956;2023-03-14T11:55:27;96258.06;;;16.93;100.00
20156;BME280;10238;49.556;10.956;2023-03-14T11:58:19;96257.16;;;17.04;100.00
20156;BME280;10238;49.556;10.956;2023-03-14T12:01:10;96250.41;;;17.57;100.00
20156;BME280;10238;49.556;10.956;2023-03-14T12:04:05;96257.31;;;16.98;100.00
20156;BME280;10238;49.556;10.956;2023-03-14T12:07:01;96245.97;;;17.29;100.00
20156;BME280;10238;49.556;10.956;2023-03-14T12:09:50;96255.97;;;17.50;100.00
20156;BME280;10238;49.556;10.956;2023-03-14T12:12:38;96253.56;;;17.54;100.00
20156;BME280;10238;49.556;10.956;2023-03-14T12:15:27;96248.28;;;17.80;100.00
20156;BME280;10238;49.556;10.956;2023-03-14T12:18:20;96245.03;;;17.40;100.00
20156;BME280;10238;49.556;10.956;2023-03-14T12:21:11;96241.78;;;17.16;100.00
20156;BME280;10238;49.556;10.956;2023-03-14T12:24:00;96241.22;;;16.98;100.00
20156;BME280;10238;49.556;10.956;2023-03-14T12:26:53;96233.41;;;17.35;100.00
20156;BME280;10238;49.556;10.956;2023-03-14T12:29:57;96230.22;;;17.54;100.00
20156;BME280;10238;49.556;10.956;2023-03-14T12:33:10;96226.03;;;17.63;100.00
20156;BME280;10238;49.556;10.956;2023-03-14T12:36:00;96225.09;;;17.14;100.00
20156;BME280;10238;49.556;10.956;2023-03-14T12:39:10;96210.63;;;16.99;100.00
20156;BME280;10238;49.556;10.956;2023-03-14T12:42:07;96212.88;;;16.69;100.00
20156;BME280;10238;49.556;10.956;2023-03-14T12:45:15;96223.50;;;16.80;100.00
20156;BME280;10238;49.556;10.956;2023-03-14T12:48:11;96214.84;;;16.29;100.00
20156;BME280;10238;49.556;10.956;2023-03-14T12:51:04;96231.84;;;15.90;100.00
20156;BME280;10238;49.556;10.956;2023-03-14T12:54:10;96244.31;;;16.40;100.00
20156;BME280;10238;49.556;10.956;2023-03-14T12:57:11;96250.09;;;16.49;100.00
20156;BME280;10238;49.556;10.956;2023-03-14T13:00:16;96250.06;;;16.04;100.00
20156;BME280;10238;49.556;10.956;2023-03-14T13:03:17;96248.78;;;16.07;100.00
20156;BME280;10238;49.556;10.956;2023-03-14T13:06:09;96266.53;;;15.57;100.00
20156;BME280;10238;49.556;10.956;2023-03-14T13:08:58;96272.72;;;15.23;100.00
20156;BME280;10238;49.556;10.956;2023-03-14T13:12:11;96298.91;;;15.09;100.00
20156;BME280;10238;49.556;10.956;2023-03-14T13:15:01;96283.22;;;15.12;100.00
20156;BME280;10238;49.556;10.956;2023-03-14T13:17:53;96317.34;;;14.64;100.00
20156;BME280;10238;49.556;10.956;2023-03-14T13:20:45;96309.53;;;14.40;100.00
20156;BME280;10238;49.556;10.956;2023-03-14T13:23:37;96318.72;;;14.55;100.00
20156;BME280;10238;49.556;10.956;2023-03-14T13:26:31;96326.28;;;14.47;100.00
20156;BME280;10238;49.556;10.956;2023-03-14T13:29:23;96325.16;;;14.07;100.00
20156;BME280;10238;49.556;10.956;2023-03-14T13:32:19;96337.72;;;13.88;100.00
20156;BME280;10238;49.556;10.956;2023-03-14T13:35:16;96340.56;;;13.75;100.00
20156;BME280;10238;49.556;10.956;2023-03-14T13:38:05;96335.34;;;13.44;100.00
20156;BME280;10238;49.556;10.956;2023-03-14T13:41:06;96338.63;;;13.46;100.00
20156;BME280;10238;49.556;10.956;2023-03-14T13:44:01;96354.13;;;13.13;100.00
20156;BME280;10238;49.556;10.956;2023-03-14T13:46:51;96363.03;;;12.76;100.00
20156;BME280;10238;49.556;10.956;2023-03-14T13:49:39;96357.63;;;12.58;100.00
20156;BME280;10238;49.556;10.956;2023-03-14T13:52:31;96364.72;;;12.70;100.00
20156;BME280;10238;49.556;10.956;2023-03-14T13:55:20;96372.25;;;12.49;100.00
20156;BME280;10238;49.556;10.956;2023-03-14T13:58:19;96372.47;;;12.10;100.00
20156;BME280;10238;49.556;10.956;2023-03-14T14:01:13;96378.78;;;12.53;100.00
20156;BME280;10238;49.556;10.956;2023-03-14T14:04:09;96388.22;;;12.49;100.00
20156;BME280;10238;49.556;10.956;2023-03-14T14:07:08;96393.69;;;12.29;100.00
20156;BME280;10238;49.556;10.956;2023-03-14T14:09:59;96411.06;;;11.94;100.00
20156;BME280;10238;49.556;10.956;2023-03-14T14:12:50;96419.13;;;12.19;100.00
20156;BME280;10238;49.556;10.956;2023-03-14T14:15:43;96447.88;;;12.04;100.00
20156;BME280;10238;49.556;10.956;2023-03-14T14:18:32;96457.31;;;11.93;100.00
20156;BME280;10238;49.556;10.956;2023-03-14T14:21:24;96473.72;;;11.90;100.00
20156;BME280;10238;49.556;10.956;2023-03-14T14:24:13;96459.25;;;11.67;100.00
20156;BME280;10238;49.556;10.956;2023-03-14T14:27:08;96459.88;;;11.62;100.00
20156;BME280;10238;49.556;10.956;2023-03-14T14:30:00;96493.81;;;11.41;100.00
20156;BME280;10238;49.556;10.956;2023-03-14T14:32:50;96524.06;;;11.20;100.00
20156;BME280;10238;49.556;10.956;2023-03-14T14:35:39;96523.28;;;11.20;100.00
20156;BME280;10238;49.556;10.956;2023-03-14T14:38:29;96547.41;;;11.18;100.00
20156;BME280;10238;49.556;10.956;2023-03-14T14:41:16;96570.06;;;11.01;100.00
20156;BME280;10238;49.556;10.956;2023-03-14T14:44:06;96581.66;;;10.80;100.00
20156;BME280;10238;49.556;10.956;2023-03-14T14:46:55;96617.94;;;10.54;100.00